Time;durP1;ratioP1;P1;durP2;ratioP2;P2;SDS_P1;SDS_P2;PMS_P1;PMS_P2;Temp;Humidity;BMP_temperature;BMP_pressure;BME280_temperature;BME280_humidity;BME280_pressure;Samples;Min_cycle;Max_cycle;Signal;HPM_P1;HPM_P2
2022/01/02 00:00:16;;;;;;;5.13;2.50;;;14.40;99.90;;;;;;5025233;28;20611;-23
2022/01/02 00:02:57;;;;;;;4.33;2.33;;;14.50;99.90;;;;;;5019629;28;20201;-23
2022/01/02 00:05:27;;;;;;;4.00;2.40;;;14.50;99.90;;;;;;5024428;28;20199;-23
2022/01/02 00:08:05;;;;;;;4.73;2.30;;;14.50;99.90;;;;;;5025042;28;20205;-23
2022/01/02 00:10:42;;;;;;;5.47;2.10;;;14.50;99.90;;;;;;5023505;28;20209;-23
2022/01/02 00:13:14;;;;;;;4.33;2.40;;;14.50;99.90;;;;;;5023611;28;20205;-23
2022/01/02 00:15:42;;;;;;;5.17;2.27;;;14.50;99.90;;;;;;5029872;28;20551;-23
2022/01/02 00:18:15;;;;;;;4.70;2.37;;;14.50;99.90;;;;;;5029528;28;20216;-23
2022/01/02 00:20:49;;;;;;;6.20;2.60;;;14.50;99.90;;;;;;5028843;28;20203;-24
2022/01/02 00:23:22;;;;;;;4.67;2.10;;;14.50;99.90;;;;;;5029204;28;20251;-23
2022/01/02 00:25:54;;;;;;;4.93;2.47;;;14.50;99.90;;;;;;5030772;28;20773;-23
2022/01/02 00:28:22;;;;;;;4.60;2.30;;;14.50;99.90;;;;;;5027976;28;20223;-23
2022/01/02 00:30:49;;;;;;;6.07;2.23;;;14.50;99.90;;;;;;5029289;28;20205;-23
2022/01/02 00:33:19;;;;;;;6.47;2.37;;;14.50;99.90;;;;;;5028290;28;20260;-23
2022/01/02 00:35:47;;;;;;;6.53;2.50;;;14.50;99.90;;;;;;5029254;28;20205;-23
2022/01/02 00:38:22;;;;;;;5.03;2.27;;;14.50;99.90;;;;;;5014731;28;20246;-23
2022/01/02 00:40:57;;;;;;;5.53;2.30;;;14.60;99.90;;;;;;5028081;28;20748;-23
2022/01/02 00:43:54;;;;;;;5.17;2.20;;;14.60;99.90;;;;;;5028397;28;20224;-23
2022/01/02 00:46:22;;;;;;;4.80;2.07;;;14.60;99.90;;;;;;5027750;28;20223;-23
2022/01/02 00:48:55;;;;;;;4.07;2.10;;;14.60;99.90;;;;;;5029887;28;20205;-24
2022/01/02 00:51:47;;;;;;;6.20;2.33;;;14.60;99.90;;;;;;5028922;28;20575;-23
2022/01/02 00:54:18;;;;;;;4.80;2.50;;;14.60;99.90;;;;;;5027587;28;20693;-23
2022/01/02 00:56:46;;;;;;;4.17;2.40;;;14.60;99.90;;;;;;5026667;28;20671;-24
2022/01/02 00:59:56;;;;;;;4.87;2.07;;;14.60;99.90;;;;;;5029630;28;20231;-23
2022/01/02 01:02:37;;;;;;;4.27;2.10;;;14.70;99.90;;;;;;5027510;28;20757;-23
2022/01/02 01:05:07;;;;;;;4.60;2.90;;;14.70;99.90;;;;;;5028420;28;20208;-24
2022/01/02 01:07:36;;;;;;;7.07;2.80;;;14.70;99.90;;;;;;5020875;28;20208;-23
2022/01/02 01:10:07;;;;;;;3.60;2.20;;;14.70;99.90;;;;;;5029320;28;20267;-23
2022/01/02 01:12:34;;;;;;;4.80;2.80;;;14.70;99.90;;;;;;5025926;28;20565;-23
2022/01/02 01:15:02;;;;;;;5.17;2.13;;;14.70;99.90;;;;;;5027103;28;20209;-23
2022/01/02 01:17:31;;;;;;;5.93;2.67;;;14.70;99.90;;;;;;5028526;28;20203;-23
2022/01/02 01:19:59;;;;;;;6.57;2.90;;;14.70;99.90;;;;;;5028689;28;20236;-23
2022/01/02 01:22:29;;;;;;;5.83;2.27;;;14.70;99.90;;;;;;5029580;28;20239;-23
2022/01/02 01:24:58;;;;;;;7.10;2.30;;;14.70;99.90;;;;;;5027775;28;20205;-23
2022/01/02 01:27:28;;;;;;;5.73;2.70;;;14.70;99.90;;;;;;5027927;28;20217;-23
2022/01/02 01:29:57;;;;;;;4.63;2.30;;;14.70;99.90;;;;;;5028848;28;20511;-23
2022/01/02 01:32:25;;;;;;;5.17;2.40;;;14.70;99.90;;;;;;5025033;28;20299;-23
2022/01/02 01:34:52;;;;;;;5.10;2.40;;;14.70;99.90;;;;;;5027547;28;20558;-23
2022/01/02 01:37:19;;;;;;;5.50;2.50;;;14.70;99.90;;;;;;5027306;28;20567;-23
2022/01/02 01:39:46;;;;;;;5.37;2.30;;;14.70;99.90;;;;;;5027242;28;20227;-24
2022/01/02 01:42:27;;;;;;;10.52;2.67;;;14.70;99.90;;;;;;5024941;28;20251;-23
2022/01/02 01:47:30;;;;;;;4.27;2.07;;;14.70;99.90;;;;;;5020353;28;20245;-24
2022/01/02 01:50:00;;;;;;;4.77;2.60;;;14.70;99.90;;;;;;5026803;28;20266;-24
2022/01/02 01:52:27;;;;;;;6.67;2.80;;;14.70;99.90;;;;;;5026177;28;20220;-24
2022/01/02 01:54:54;;;;;;;7.50;3.10;;;14.70;99.90;;;;;;5027792;28;20235;-23
2022/01/02 01:57:21;;;;;;;3.90;2.40;;;14.70;99.90;;;;;;5026530;28;20213;-23
2022/01/02 01:59:49;;;;;;;5.77;2.30;;;14.70;99.90;;;;;;5024643;28;20331;-23
2022/01/02 02:02:17;;;;;;;7.63;2.80;;;14.70;99.90;;;;;;5026451;28;20671;-24
2022/01/02 02:04:44;;;;;;;6.23;2.30;;;14.70;99.90;;;;;;5027423;28;20205;-23
2022/01/02 02:07:15;;;;;;;5.17;2.30;;;14.70;99.90;;;;;;5027026;28;20201;-23
2022/01/02 02:12:18;;;;;;;6.67;2.73;;;14.70;99.90;;;;;;5026105;28;20217;-24
2022/01/02 02:14:48;;;;;;;5.03;2.47;;;14.70;99.90;;;;;;5026511;28;20205;-23
2022/01/02 02:17:15;;;;;;;4.77;2.43;;;14.70;99.90;;;;;;5027524;28;20267;-23
2022/01/02 02:19:46;;;;;;;6.88;2.80;;;14.70;99.90;;;;;;5027594;28;20274;-24
2022/01/02 02:22:13;;;;;;;4.40;2.20;;;14.70;99.90;;;;;;5029912;28;20211;-23
2022/01/02 02:24:43;;;;;;;6.33;2.50;;;14.60;99.90;;;;;;5017429;28;20193;-23
2022/01/02 02:27:12;;;;;;;7.70;2.50;;;14.70;99.90;;;;;;5026206;28;20201;-23
2022/01/02 02:29:39;;;;;;;6.93;3.00;;;14.60;99.90;;;;;;5027090;28;20240;-24
2022/01/02 02:32:09;;;;;;;5.43;2.70;;;14.60;99.90;;;;;;5033669;28;20254;-24
2022/01/02 02:34:37;;;;;;;3.93;2.27;;;14.60;99.90;;;;;;5033839;28;20201;-23
2022/01/02 02:37:04;;;;;;;5.07;2.30;;;14.60;99.90;;;;;;5021231;28;20316;-23
2022/01/02 02:39:33;;;;;;;4.67;2.30;;;14.60;99.90;;;;;;5025882;28;20220;-23
2022/01/02 02:42:11;;;;;;;7.17;2.47;;;14.60;99.90;;;;;;5024449;28;20246;-23
2022/01/02 02:44:44;;;;;;;6.50;2.90;;;14.60;99.90;;;;;;5025823;28;20618;-24
2022/01/02 02:49:56;;;;;;;5.57;2.47;;;14.60;99.90;;;;;;5026795;28;20314;-24
2022/01/02 02:52:39;;;;;;;3.90;2.20;;;14.60;99.90;;;;;;5024318;28;20231;-25
2022/01/02 02:55:08;;;;;;;5.70;2.47;;;14.60;99.90;;;;;;5024782;28;20221;-25
2022/01/02 02:57:38;;;;;;;4.70;2.70;;;14.60;99.90;;;;;;5024410;28;20287;-25
2022/01/02 03:00:06;;;;;;;7.33;2.30;;;14.60;99.90;;;;;;5027277;28;20236;-24
2022/01/02 03:02:33;;;;;;;6.87;2.37;;;14.60;99.90;;;;;;5025843;28;20209;-25
2022/01/02 03:05:00;;;;;;;6.27;2.50;;;14.60;99.90;;;;;;5026240;28;20208;-25
2022/01/02 03:07:30;;;;;;;2.90;2.13;;;14.60;99.90;;;;;;5026307;28;20219;-25
2022/01/02 03:10:02;;;;;;;3.77;2.17;;;14.60;99.90;;;;;;5027335;28;20217;-24
2022/01/02 03:12:29;;;;;;;6.67;2.33;;;14.60;99.90;;;;;;5026230;28;20201;-24
2022/01/02 03:14:56;;;;;;;5.20;2.20;;;14.60;99.90;;;;;;5023620;28;20209;-24
2022/01/02 03:17:23;;;;;;;8.87;2.60;;;14.60;99.90;;;;;;5057559;28;20288;-24
2022/01/02 03:19:51;;;;;;;3.43;2.10;;;14.60;99.90;;;;;;5026351;28;20229;-24
2022/01/02 03:22:18;;;;;;;5.90;2.10;;;14.60;99.90;;;;;;5025160;28;20228;-24
2022/01/02 03:24:49;;;;;;;4.77;2.07;;;14.60;99.90;;;;;;5025192;28;20580;-24
2022/01/02 03:27:16;;;;;;;7.30;2.50;;;14.60;99.90;;;;;;5026375;28;20216;-24
2022/01/02 03:29:43;;;;;;;4.40;2.30;;;14.60;99.90;;;;;;5025381;28;20220;-24
2022/01/02 03:32:13;;;;;;;6.17;2.60;;;14.60;99.90;;;;;;5024208;28;20216;-25
2022/01/02 03:34:43;;;;;;;4.50;2.40;;;14.60;99.90;;;;;;5057814;28;20200;-24
2022/01/02 03:37:10;;;;;;;3.93;2.07;;;14.50;99.90;;;;;;5025094;28;20205;-25
2022/01/02 03:39:38;;;;;;;3.57;2.10;;;14.50;99.90;;;;;;5024674;28;20637;-24
2022/01/02 03:42:09;;;;;;;4.20;2.23;;;14.50;99.90;;;;;;5025312;28;20647;-25
2022/01/02 03:44:38;;;;;;;5.20;2.00;;;14.50;99.90;;;;;;5025398;28;20201;-24
2022/01/02 03:47:06;;;;;;;3.80;2.10;;;14.50;99.90;;;;;;5025767;28;20772;-25
2022/01/02 03:49:34;;;;;;;4.00;2.10;;;14.50;99.90;;;;;;5028539;28;20268;-24
2022/01/02 03:52:04;;;;;;;7.17;2.87;;;14.50;99.90;;;;;;5029499;28;20219;-24
2022/01/02 03:54:31;;;;;;;3.37;2.17;;;14.50;99.90;;;;;;5029658;28;20663;-25
2022/01/02 03:56:59;;;;;;;5.33;2.47;;;14.50;99.90;;;;;;5029708;28;20848;-24
2022/01/02 03:59:26;;;;;;;3.70;2.20;;;14.50;99.90;;;;;;5029000;28;20228;-25
2022/01/02 04:01:56;;;;;;;4.70;2.10;;;14.50;99.90;;;;;;5029596;28;20204;-25
2022/01/02 04:04:23;;;;;;;3.53;2.38;;;14.50;99.90;;;;;;5028444;28;20338;-25
2022/01/02 04:06:51;;;;;;;3.77;2.27;;;14.50;99.90;;;;;;5028404;28;20653;-24
2022/01/02 04:09:20;;;;;;;4.53;2.37;;;14.50;99.90;;;;;;5028431;28;20637;-24
2022/01/02 04:11:48;;;;;;;3.70;2.37;;;14.50;99.90;;;;;;5028537;28;20213;-25
2022/01/02 04:14:15;;;;;;;4.27;2.27;;;14.50;99.90;;;;;;5028448;28;20694;-24
2022/01/02 04:16:42;;;;;;;4.57;2.03;;;14.50;99.90;;;;;;5030677;28;20209;-25
2022/01/02 04:19:09;;;;;;;3.00;2.10;;;14.50;99.90;;;;;;5028885;28;20573;-25
2022/01/02 04:21:37;;;;;;;6.00;2.33;;;14.50;99.90;;;;;;5030106;28;20197;-25
2022/01/02 04:24:04;;;;;;;4.87;2.43;;;14.50;99.90;;;;;;5029514;28;20201;-24
2022/01/02 04:26:32;;;;;;;3.20;2.00;;;14.50;99.90;;;;;;5028154;28;20221;-25
2022/01/02 04:29:05;;;;;;;3.40;1.97;;;14.50;99.90;;;;;;5028088;28;20205;-24
2022/01/02 04:31:32;;;;;;;5.23;2.60;;;14.50;99.90;;;;;;5029460;28;20235;-24
2022/01/02 04:34:02;;;;;;;3.20;2.10;;;14.50;99.90;;;;;;5029462;28;20259;-25
2022/01/02 04:36:29;;;;;;;4.77;1.97;;;14.50;99.90;;;;;;5027356;28;20637;-25
2022/01/02 04:38:56;;;;;;;4.43;2.17;;;14.50;99.90;;;;;;5027013;28;20260;-24
2022/01/02 04:41:24;;;;;;;5.47;2.30;;;14.50;99.90;;;;;;5025313;28;20201;-25
2022/01/02 04:43:51;;;;;;;4.60;2.10;;;14.50;99.90;;;;;;5015770;28;20216;-24
2022/01/02 04:46:18;;;;;;;4.27;2.03;;;14.50;99.90;;;;;;5028994;28;20201;-23
2022/01/02 04:48:50;;;;;;;5.03;2.03;;;14.50;99.90;;;;;;5028979;28;20229;-23
2022/01/02 04:51:20;;;;;;;4.07;2.10;;;14.50;99.90;;;;;;5028578;28;20250;-23
2022/01/02 04:53:48;;;;;;;3.60;2.27;;;14.50;99.90;;;;;;5028498;28;20727;-23
2022/01/02 04:56:18;;;;;;;6.10;2.23;;;14.50;99.90;;;;;;5028716;28;20295;-23
2022/01/02 04:58:45;;;;;;;9.40;2.67;;;14.50;99.90;;;;;;5028912;28;20585;-23
2022/01/02 05:01:16;;;;;;;3.70;2.00;;;14.50;99.90;;;;;;5027114;28;20613;-23
2022/01/02 05:03:44;;;;;;;4.97;2.17;;;14.50;99.90;;;;;;5027201;28;20197;-24
2022/01/02 05:06:11;;;;;;;4.33;2.10;;;14.50;99.90;;;;;;5026904;28;20209;-23
2022/01/02 05:08:43;;;;;;;5.30;2.20;;;14.50;99.90;;;;;;5026109;28;20213;-24
2022/01/02 05:11:13;;;;;;;5.30;2.30;;;14.50;99.90;;;;;;5027270;28;20208;-23
2022/01/02 05:13:41;;;;;;;6.10;2.33;;;14.50;99.90;;;;;;5027298;28;20225;-23
2022/01/02 05:16:12;;;;;;;5.23;2.20;;;14.50;99.90;;;;;;5026933;28;20224;-23
2022/01/02 05:18:42;;;;;;;3.10;2.20;;;14.40;99.90;;;;;;5027947;28;20258;-23
2022/01/02 05:21:13;;;;;;;4.53;2.37;;;14.50;99.90;;;;;;5029441;28;20637;-23
2022/01/02 05:23:42;;;;;;;3.73;1.87;;;14.50;99.90;;;;;;5027435;28;20212;-23
2022/01/02 05:26:09;;;;;;;4.40;2.07;;;14.40;99.90;;;;;;5028274;28;20213;-23
2022/01/02 05:28:37;;;;;;;2.47;1.73;;;14.40;99.90;;;;;;5026774;28;20947;-23
2022/01/02 05:31:04;;;;;;;4.77;2.00;;;14.40;99.90;;;;;;5028481;28;20206;-23
2022/01/02 05:33:34;;;;;;;3.37;2.00;;;14.40;99.90;;;;;;5028028;28;20216;-23
2022/01/02 05:36:03;;;;;;;3.87;2.10;;;14.40;99.90;;;;;;5026535;28;20705;-24
2022/01/02 05:38:31;;;;;;;3.27;1.77;;;14.40;99.90;;;;;;5025862;28;20243;-23
2022/01/02 05:40:58;;;;;;;4.03;2.00;;;14.40;99.90;;;;;;5028593;28;20260;-23
2022/01/02 05:43:25;;;;;;;3.30;2.20;;;14.40;99.90;;;;;;5026559;28;20219;-24
2022/01/02 05:45:55;;;;;;;3.73;2.13;;;14.40;99.90;;;;;;5027921;28;20274;-23
2022/01/02 05:48:25;;;;;;;3.80;1.90;;;14.40;99.90;;;;;;5027057;28;20425;-23
2022/01/02 05:50:54;;;;;;;3.93;1.97;;;14.40;99.90;;;;;;5029008;28;20248;-24
2022/01/02 05:53:21;;;;;;;2.50;2.00;;;14.30;99.90;;;;;;5026809;28;20213;-24
2022/01/02 05:55:48;;;;;;;3.17;1.87;;;14.30;99.90;;;;;;5026826;28;20755;-24
2022/01/02 05:58:19;;;;;;;4.07;2.00;;;14.30;99.90;;;;;;5021009;28;20222;-23
2022/01/02 06:00:49;;;;;;;3.23;2.10;;;14.30;99.90;;;;;;5020662;28;20235;-23
2022/01/02 06:03:16;;;;;;;2.60;1.80;;;14.30;99.90;;;;;;5026355;28;20576;-23
2022/01/02 06:05:44;;;;;;;3.37;2.37;;;14.30;99.90;;;;;;5027857;28;20197;-23
2022/01/02 06:08:11;;;;;;;4.20;1.93;;;14.30;99.90;;;;;;5025729;28;20269;-23
2022/01/02 06:10:38;;;;;;;4.87;1.90;;;14.30;99.90;;;;;;5024446;28;20791;-23
2022/01/02 06:13:05;;;;;;;5.00;1.80;;;14.30;99.90;;;;;;5024006;28;20220;-23
2022/01/02 06:15:32;;;;;;;4.33;2.97;;;14.30;99.90;;;;;;5017975;28;20745;-23
2022/01/02 06:18:00;;;;;;;3.87;2.30;;;14.30;99.90;;;;;;5027288;28;20223;-23
2022/01/02 06:20:27;;;;;;;5.03;2.40;;;14.30;99.90;;;;;;5026963;28;20703;-24
2022/01/02 06:22:55;;;;;;;3.30;2.00;;;14.30;99.90;;;;;;5057556;28;20205;-23
2022/01/02 06:25:22;;;;;;;4.17;2.00;;;14.30;99.90;;;;;;5058083;28;20338;-23
2022/01/02 06:27:50;;;;;;;3.80;1.80;;;14.30;99.90;;;;;;5027558;28;20234;-23
2022/01/02 06:30:17;;;;;;;2.77;1.90;;;14.30;99.90;;;;;;5024807;28;20205;-23
2022/01/02 06:32:44;;;;;;;3.23;1.87;;;14.30;99.90;;;;;;5027023;28;20201;-23
2022/01/02 06:35:12;;;;;;;7.10;2.30;;;14.30;99.90;;;;;;5026850;28;20213;-23
2022/01/02 06:37:39;;;;;;;3.17;1.93;;;14.30;99.90;;;;;;5057677;28;20227;-23
2022/01/02 06:40:07;;;;;;;3.13;1.77;;;14.30;99.90;;;;;;5024611;28;20232;-23
2022/01/02 06:42:34;;;;;;;2.47;2.03;;;14.30;99.90;;;;;;5021341;28;20205;-23
2022/01/02 06:45:07;;;;;;;3.43;1.90;;;14.40;99.90;;;;;;5025736;28;21000;-23
2022/01/02 06:47:34;;;;;;;4.00;1.90;;;14.30;99.90;;;;;;5023930;28;20255;-23
2022/01/02 06:50:02;;;;;;;3.60;1.83;;;14.40;99.90;;;;;;5021658;28;20659;-23
2022/01/02 06:52:31;;;;;;;2.10;1.70;;;14.40;99.90;;;;;;5054187;28;20229;-23
2022/01/02 06:55:01;;;;;;;3.40;2.00;;;14.40;99.90;;;;;;5052390;28;20204;-23
2022/01/02 06:57:28;;;;;;;2.70;1.60;;;14.40;99.90;;;;;;5013156;28;20236;-23
2022/01/02 06:59:58;;;;;;;3.00;1.73;;;14.40;99.90;;;;;;5021844;28;20225;-23
2022/01/02 07:02:25;;;;;;;3.50;1.73;;;14.40;99.90;;;;;;5025193;28;20748;-23
2022/01/02 07:04:55;;;;;;;3.93;1.70;;;14.40;99.90;;;;;;5016025;28;20199;-23
2022/01/02 07:07:25;;;;;;;2.83;1.57;;;14.40;99.90;;;;;;5025178;28;20279;-23
2022/01/02 07:09:52;;;;;;;1.80;1.57;;;14.40;99.90;;;;;;5022585;28;20294;-23
2022/01/02 07:12:23;;;;;;;3.43;1.83;;;14.50;99.90;;;;;;5025935;28;20200;-23
2022/01/02 07:14:50;;;;;;;5.93;1.80;;;14.50;99.90;;;;;;5025619;28;20676;-23
2022/01/02 07:17:20;;;;;;;2.40;1.50;;;14.50;99.90;;;;;;5027073;28;20228;-23
2022/01/02 07:19:47;;;;;;;1.80;1.30;;;14.50;99.90;;;;;;5026327;28;20229;-23
2022/01/02 07:22:14;;;;;;;2.40;1.80;;;14.50;99.90;;;;;;5026385;28;20621;-23
2022/01/02 07:24:47;;;;;;;2.73;1.30;;;14.50;99.90;;;;;;5029845;28;20200;-23
2022/01/02 07:27:14;;;;;;;4.40;1.67;;;14.50;99.90;;;;;;5029508;28;20259;-23
2022/01/02 07:29:42;;;;;;;1.83;1.67;;;14.50;99.90;;;;;;5027653;28;20719;-23
2022/01/02 07:32:10;;;;;;;1.73;1.50;;;14.50;99.90;;;;;;5030620;28;20295;-23
2022/01/02 07:34:39;;;;;;;3.07;1.57;;;14.60;99.90;;;;;;5028435;28;20757;-23
2022/01/02 07:37:10;;;;;;;2.50;1.60;;;14.60;99.90;;;;;;5022876;28;20213;-23
2022/01/02 07:39:39;;;;;;;1.90;1.30;;;14.60;99.90;;;;;;5029390;28;20366;-23
2022/01/02 07:42:07;;;;;;;2.03;1.37;;;14.60;99.90;;;;;;5028836;28;20227;-23
2022/01/02 07:44:36;;;;;;;4.23;1.50;;;14.60;99.90;;;;;;5029417;28;20699;-23
2022/01/02 07:47:05;;;;;;;2.87;1.73;;;14.60;99.90;;;;;;5029513;28;20228;-23
2022/01/02 07:49:35;;;;;;;2.27;1.57;;;14.60;99.90;;;;;;5030625;28;20225;-23
2022/01/02 07:52:04;;;;;;;2.40;1.63;;;14.60;99.90;;;;;;5028263;28;20440;-23
2022/01/02 07:54:32;;;;;;;2.30;1.70;;;14.60;99.90;;;;;;5022435;28;20236;-23
2022/01/02 07:56:59;;;;;;;4.17;1.70;;;14.60;99.90;;;;;;5029816;28;20197;-23
2022/01/02 07:59:26;;;;;;;4.17;1.80;;;14.60;99.90;;;;;;5028231;28;20197;-23
2022/01/02 08:01:54;;;;;;;3.90;1.80;;;14.60;99.90;;;;;;5029942;28;20227;-23
2022/01/02 08:04:24;;;;;;;2.72;1.67;;;14.60;99.90;;;;;;5033381;28;20239;-23
2022/01/02 08:06:54;;;;;;;2.43;1.63;;;14.70;99.90;;;;;;5029450;28;20694;-23
2022/01/02 08:09:21;;;;;;;4.87;2.20;;;14.70;99.90;;;;;;5029890;28;20718;-23
2022/01/02 08:11:50;;;;;;;3.30;1.73;;;14.70;99.90;;;;;;5024149;28;20311;-23
2022/01/02 08:14:18;;;;;;;2.50;1.60;;;14.70;99.90;;;;;;5028800;28;20271;-23
2022/01/02 08:16:45;;;;;;;2.80;1.80;;;14.70;99.90;;;;;;5028794;28;20235;-23
2022/01/02 08:19:15;;;;;;;4.40;2.17;;;14.70;99.90;;;;;;5029882;28;20205;-23
2022/01/02 08:21:42;;;;;;;3.28;1.73;;;14.70;99.90;;;;;;5028584;28;20741;-23
2022/01/02 08:24:12;;;;;;;3.47;2.17;;;14.70;99.90;;;;;;5028654;28;20211;-23
2022/01/02 08:26:41;;;;;;;3.13;2.10;;;14.80;99.90;;;;;;5028770;28;20208;-24
2022/01/02 08:29:09;;;;;;;4.70;2.20;;;14.80;99.90;;;;;;5028422;28;20204;-23
2022/01/02 08:31:40;;;;;;;2.63;1.83;;;14.80;99.90;;;;;;5030313;28;20576;-23
2022/01/02 08:34:07;;;;;;;4.37;2.27;;;14.80;99.90;;;;;;5028106;28;20205;-23
2022/01/02 08:36:35;;;;;;;2.85;2.13;;;14.80;99.90;;;;;;5029113;28;20205;-23
2022/01/02 08:39:04;;;;;;;4.87;2.87;;;14.80;99.90;;;;;;5029526;28;20561;-23
2022/01/02 08:41:34;;;;;;;3.93;2.60;;;14.80;99.90;;;;;;5029709;28;20298;-23
2022/01/02 08:44:01;;;;;;;5.30;2.50;;;14.80;99.90;;;;;;5024245;28;20197;-23
2022/01/02 08:46:28;;;;;;;4.00;2.70;;;14.80;99.90;;;;;;5027204;28;20296;-23
2022/01/02 08:48:56;;;;;;;4.07;2.65;;;14.80;99.90;;;;;;5029136;28;20247;-23
2022/01/02 08:51:27;;;;;;;5.73;2.80;;;14.90;99.90;;;;;;5044145;28;20646;-23
2022/01/02 08:53:54;;;;;;;6.23;2.83;;;14.90;99.90;;;;;;5042627;28;20215;-23
2022/01/02 08:56:24;;;;;;;5.80;2.87;;;14.90;99.90;;;;;;5028632;28;20335;-23
2022/01/02 08:58:53;;;;;;;4.60;3.20;;;14.90;99.90;;;;;;5027639;28;20606;-23
2022/01/02 09:01:25;;;;;;;5.73;3.30;;;14.90;99.90;;;;;;5027513;28;20225;-23
2022/01/02 09:03:53;;;;;;;4.77;2.97;;;14.90;99.90;;;;;;5032168;28;20209;-23
2022/01/02 09:06:20;;;;;;;5.47;2.73;;;14.90;99.90;;;;;;5027744;28;20197;-23
2022/01/02 09:08:47;;;;;;;4.30;2.67;;;14.90;99.90;;;;;;5028197;28;20679;-23
2022/01/02 09:11:14;;;;;;;4.87;3.03;;;14.90;99.90;;;;;;5028992;28;20225;-23
2022/01/02 09:13:46;;;;;;;3.20;2.47;;;14.90;99.90;;;;;;5026211;28;20205;-23
2022/01/02 09:16:13;;;;;;;3.93;2.47;;;14.90;99.90;;;;;;5028165;28;20211;-23
2022/01/02 09:18:41;;;;;;;5.73;3.17;;;14.90;99.90;;;;;;5023179;28;20221;-23
2022/01/02 09:21:08;;;;;;;4.30;3.07;;;14.90;99.90;;;;;;5028652;28;20224;-23
2022/01/02 09:23:37;;;;;;;4.63;2.95;;;14.90;99.90;;;;;;5026053;28;20292;-24
2022/01/02 09:26:04;;;;;;;3.73;2.80;;;14.90;99.90;;;;;;5027694;28;20213;-24
2022/01/02 09:28:32;;;;;;;5.47;3.23;;;14.90;99.90;;;;;;5027624;28;20235;-24
2022/01/02 09:30:59;;;;;;;5.77;3.20;;;14.90;99.90;;;;;;5027963;28;21454;-24
2022/01/02 09:33:27;;;;;;;3.83;3.10;;;14.90;99.90;;;;;;5028988;28;20883;-23
2022/01/02 09:35:56;;;;;;;3.90;2.83;;;14.90;99.90;;;;;;5028966;28;20215;-23
2022/01/02 09:38:24;;;;;;;3.80;3.10;;;14.90;99.90;;;;;;5027427;28;20212;-23
2022/01/02 09:40:52;;;;;;;6.80;3.13;;;14.90;99.90;;;;;;5029195;28;20227;-23
2022/01/02 09:43:19;;;;;;;4.77;3.00;;;15.00;99.90;;;;;;5025676;28;20223;-23
2022/01/02 09:45:48;;;;;;;3.90;2.90;;;15.00;99.90;;;;;;5023704;28;20225;-23
2022/01/02 09:48:18;;;;;;;5.90;3.10;;;15.00;99.90;;;;;;5021814;28;20347;-23
2022/01/02 09:50:47;;;;;;;4.20;3.10;;;15.00;99.90;;;;;;5026859;28;20970;-23
2022/01/02 09:53:19;;;;;;;4.97;3.40;;;15.10;99.90;;;;;;5025876;28;20243;-23
2022/01/02 09:55:48;;;;;;;6.73;3.27;;;15.10;99.90;;;;;;5028916;28;20232;-23
2022/01/02 09:58:15;;;;;;;5.80;3.20;;;15.10;99.90;;;;;;5027798;28;20311;-23
2022/01/02 10:00:46;;;;;;;4.43;2.70;;;15.20;99.90;;;;;;5028353;28;20252;-23
2022/01/02 10:03:17;;;;;;;5.83;3.30;;;15.20;99.90;;;;;;5027292;28;20225;-23
2022/01/02 10:06:02;;;;;;;5.35;2.90;;;15.20;99.90;;;;;;5028237;28;20209;-23
2022/01/02 10:08:34;;;;;;;6.37;3.37;;;15.30;99.90;;;;;;5027774;28;20197;-23
2022/01/02 10:11:17;;;;;;;5.10;2.83;;;15.30;99.90;;;;;;5017534;28;20274;-23
2022/01/02 10:14:11;;;;;;;6.30;3.17;;;15.30;99.90;;;;;;5021979;28;20212;-23
2022/01/02 10:16:42;;;;;;;5.87;2.90;;;15.30;99.90;;;;;;5027685;28;20233;-23
2022/01/02 10:19:35;;;;;;;6.17;3.00;;;15.30;99.90;;;;;;5027589;28;20244;-23
2022/01/02 10:22:07;;;;;;;3.67;2.60;;;15.40;99.90;;;;;;5056914;28;20547;-23
2022/01/02 10:24:40;;;;;;;4.00;2.60;;;15.40;99.90;;;;;;5027896;28;20224;-23
2022/01/02 10:27:21;;;;;;;6.63;2.90;;;15.40;99.90;;;;;;5027173;28;20284;-23
2022/01/02 10:30:01;;;;;;;6.47;3.33;;;15.40;99.90;;;;;;5025892;28;20239;-23
2022/01/02 10:32:37;;;;;;;6.45;2.67;;;15.40;99.90;;;;;;5041750;28;20227;-23
2022/01/02 10:35:14;;;;;;;7.77;3.10;;;15.40;99.90;;;;;;5028852;28;20210;-23
2022/01/02 10:37:43;;;;;;;5.90;2.97;;;15.40;99.90;;;;;;5008201;28;20209;-23
2022/01/02 10:40:31;;;;;;;7.07;3.07;;;15.40;99.90;;;;;;5020969;28;20948;-23
2022/01/02 10:43:06;;;;;;;5.50;2.90;;;15.50;99.90;;;;;;5027174;28;20559;-23
2022/01/02 10:45:45;;;;;;;7.10;3.13;;;15.50;99.90;;;;;;5025210;28;20224;-23
2022/01/02 10:48:18;;;;;;;4.30;2.60;;;15.50;99.90;;;;;;5026423;28;20267;-23
2022/01/02 10:51:00;;;;;;;6.23;3.03;;;15.50;99.90;;;;;;5026069;28;20232;-23
2022/01/02 10:53:28;;;;;;;6.30;3.13;;;15.50;99.90;;;;;;5025929;28;20209;-23
2022/01/02 10:55:58;;;;;;;5.15;2.90;;;15.50;99.90;;;;;;5024989;28;20221;-23
2022/01/02 10:58:26;;;;;;;6.30;3.08;;;15.50;99.90;;;;;;5026512;28;20240;-23
2022/01/02 11:01:00;;;;;;;5.43;3.00;;;15.50;99.90;;;;;;5058560;28;20286;-23
2022/01/02 11:03:29;;;;;;;5.60;3.27;;;15.60;99.90;;;;;;5026021;28;20209;-23
2022/01/02 11:06:04;;;;;;;4.67;2.80;;;15.60;99.90;;;;;;5025632;28;20219;-23
2022/01/02 11:08:34;;;;;;;7.35;3.08;;;15.60;99.90;;;;;;5026929;28;20667;-23
2022/01/02 11:11:04;;;;;;;8.33;3.00;;;15.60;99.90;;;;;;5008542;28;20308;-23
2022/01/02 11:13:32;;;;;;;9.40;3.63;;;15.60;99.90;;;;;;5023835;28;20679;-23
2022/01/02 11:16:04;;;;;;;4.97;2.53;;;15.60;99.90;;;;;;5027017;28;20255;-23
2022/01/02 11:18:36;;;;;;;4.78;2.53;;;15.60;99.90;;;;;;5025550;28;20197;-24
2022/01/02 11:21:08;;;;;;;5.53;2.95;;;15.60;99.90;;;;;;5026146;28;20327;-24
2022/01/02 11:23:50;;;;;;;7.83;2.70;;;15.60;99.90;;;;;;5024120;28;20197;-24
2022/01/02 11:26:45;;;;;;;5.70;2.60;;;15.60;99.90;;;;;;5026392;28;20204;-24
2022/01/02 11:29:14;;;;;;;4.53;2.50;;;15.60;99.90;;;;;;5017048;28;20476;-24
2022/01/02 11:31:48;;;;;;;5.57;2.47;;;15.60;99.90;;;;;;5026923;28;20213;-24
2022/01/02 11:34:22;;;;;;;10.03;3.00;;;15.70;99.90;;;;;;5023725;28;20722;-24
2022/01/02 11:36:50;;;;;;;6.13;2.30;;;15.70;99.90;;;;;;5023666;28;20208;-24
2022/01/02 11:39:20;;;;;;;4.67;2.50;;;15.60;99.90;;;;;;5026906;28;20303;-24
2022/01/02 11:41:52;;;;;;;5.07;2.78;;;15.70;99.90;;;;;;5025308;28;20294;-24
2022/01/02 11:44:43;;;;;;;8.73;2.50;;;15.70;99.90;;;;;;5025243;28;20199;-24
2022/01/02 11:47:10;;;;;;;5.33;2.53;;;15.80;99.90;;;;;;5026354;28;20212;-24
2022/01/02 11:49:44;;;;;;;8.60;2.80;;;15.80;99.90;;;;;;5025965;28;20319;-24
2022/01/02 11:52:23;;;;;;;6.07;2.40;;;15.80;99.90;;;;;;5022979;28;20205;-24
2022/01/02 11:54:52;;;;;;;7.57;2.77;;;15.80;99.90;;;;;;5024592;28;20258;-23
2022/01/02 11:57:26;;;;;;;6.10;3.00;;;15.80;99.90;;;;;;5041641;28;20224;-24
2022/01/02 11:59:56;;;;;;;7.03;2.73;;;15.90;99.90;;;;;;5026046;28;20213;-24
2022/01/02 12:02:23;;;;;;;4.90;2.37;;;15.90;99.90;;;;;;5026623;28;20225;-24
2022/01/02 12:05:02;;;;;;;5.93;2.70;;;15.90;99.90;;;;;;5040711;28;20205;-24
2022/01/02 12:07:37;;;;;;;4.87;2.70;;;15.90;99.90;;;;;;5023516;28;20726;-24
2022/01/02 12:10:16;;;;;;;6.10;2.73;;;15.90;99.90;;;;;;5025693;28;20204;-24
2022/01/02 12:13:20;;;;;;;5.67;2.33;;;15.90;99.90;;;;;;5027474;28;20739;-24
2022/01/02 12:15:47;;;;;;;5.90;2.77;;;15.90;99.90;;;;;;5029974;28;20275;-24
2022/01/02 12:18:33;;;;;;;5.00;2.40;;;15.90;99.90;;;;;;5023804;28;20758;-24
2022/01/02 12:21:07;;;;;;;5.90;2.90;;;15.90;99.90;;;;;;5029756;28;20316;-24
2022/01/02 12:23:40;;;;;;;5.50;2.77;;;16.00;99.90;;;;;;5015704;28;20343;-24
2022/01/02 12:26:10;;;;;;;6.43;2.83;;;16.00;99.90;;;;;;5024580;28;20225;-24
2022/01/02 12:28:42;;;;;;;6.43;2.87;;;16.00;99.90;;;;;;5036011;28;20640;-24
2022/01/02 12:31:12;;;;;;;4.50;2.37;;;16.00;99.90;;;;;;5030274;28;20204;-24
2022/01/02 12:33:42;;;;;;;6.67;2.50;;;16.00;99.90;;;;;;5028678;28;20207;-24
2022/01/02 12:36:10;;;;;;;4.97;2.50;;;16.00;99.90;;;;;;5029611;28;20209;-24
2022/01/02 12:38:53;;;;;;;3.70;2.30;;;16.00;99.90;;;;;;5028828;28;20571;-24
2022/01/02 12:41:23;;;;;;;4.97;2.40;;;16.00;99.90;;;;;;5044455;28;20645;-24
2022/01/02 12:44:00;;;;;;;4.50;2.63;;;16.00;99.90;;;;;;5027664;28;20290;-24
2022/01/02 12:46:39;;;;;;;3.70;2.40;;;16.00;99.90;;;;;;5029895;28;20203;-24
2022/01/02 12:49:22;;;;;;;6.15;2.40;;;16.00;99.90;;;;;;5028662;28;20271;-24
2022/01/02 12:51:53;;;;;;;6.78;2.45;;;16.00;99.90;;;;;;5029358;28;20236;-24
2022/01/02 12:54:27;;;;;;;5.50;2.40;;;16.00;99.90;;;;;;5028804;28;20205;-24
2022/01/02 12:57:04;;;;;;;5.40;2.57;;;16.00;99.90;;;;;;5029380;28;20667;-24
2022/01/02 12:59:35;;;;;;;3.22;1.83;;;16.00;99.90;;;;;;5021139;28;20240;-24
2022/01/02 13:02:09;;;;;;;5.30;2.40;;;16.00;99.90;;;;;;5028214;28;20702;-24
2022/01/02 13:04:39;;;;;;;4.20;2.17;;;16.00;99.90;;;;;;5026339;28;20343;-24
2022/01/02 13:07:14;;;;;;;6.23;2.43;;;16.10;99.90;;;;;;5027736;28;20284;-24
2022/01/02 13:09:53;;;;;;;6.80;2.60;;;16.10;99.90;;;;;;5023564;28;20212;-24
2022/01/02 13:12:23;;;;;;;3.67;2.37;;;16.10;99.90;;;;;;5028690;28;20209;-24